Time;durP1;ratioP1;P1;durP2;ratioP2;P2;SDS_P1;SDS_P2;PMS_P1;PMS_P2;Temp;Humidity;BMP_temperature;BMP_pressure;BME280_temperature;BME280_humidity;BME280_pressure;Samples;Min_cycle;Max_cycle;Signal;HPM_P1;HPM_P2
2023/07/06 00:00:13;;;;;;;;;;;;;;;24.84;56.25;99334.47;5090884;28;19931;-43
2023/07/06 00:02:38;;;;;;;;;;;;;;;25.20;55.15;99332.81;5090670;28;19912;-42
2023/07/06 00:05:04;;;;;;;;;;;;;;;25.18;55.59;99344.81;5090562;28;19962;-42
2023/07/06 00:07:29;;;;;;;;;;;;;;;24.94;56.10;99345.13;5090447;28;20055;-42
2023/07/06 00:09:54;;;;;;;;;;;;;;;24.77;56.12;99324.03;5090342;28;20312;-42
2023/07/06 00:12:23;;;;;;;;;;;;;;;24.91;56.67;99342.22;5088875;28;19912;-43
2023/07/06 00:14:48;;;;;;;;;;;;;;;24.58;57.42;99343.22;5090252;28;20424;-43
2023/07/06 00:17:15;;;;;;;;;;;;;;;24.42;58.32;99343.84;5090222;28;20000;-42
2023/07/06 00:19:41;;;;;;;;;;;;;;;24.68;57.60;99344.91;5090030;28;20360;-43
2023/07/06 00:22:08;;;;;;;;;;;;;;;24.78;56.95;99341.94;5090152;28;20191;-42
2023/07/06 00:24:33;;;;;;;;;;;;;;;24.76;57.29;99343.38;5090088;28;20055;-42
2023/07/06 00:26:59;;;;;;;;;;;;;;;24.98;56.26;99350.78;5090205;28;19973;-42
2023/07/06 00:29:26;;;;;;;;;;;;;;;25.14;55.73;99348.47;5089937;28;20387;-42
2023/07/06 00:31:53;;;;;;;;;;;;;;;24.78;56.25;99344.66;5090093;28;19916;-44
2023/07/06 00:34:19;;;;;;;;;;;;;;;24.84;56.25;99345.34;5089934;28;19924;-43
2023/07/06 00:36:46;;;;;;;;;;;;;;;24.89;56.24;99350.69;5089873;28;20437;-42
2023/07/06 00:39:12;;;;;;;;;;;;;;;24.89;55.79;99347.16;5089704;28;19974;-43
2023/07/06 00:41:38;;;;;;;;;;;;;;;24.92;55.72;99347.38;5090055;28;19976;-43
2023/07/06 00:44:04;;;;;;;;;;;;;;;25.12;55.07;99347.97;5089720;28;20360;-44
2023/07/06 00:46:36;;;;;;;;;;;;;;;25.09;55.04;99343.97;5089780;28;19919;-43
2023/07/06 00:49:03;;;;;;;;;;;;;;;25.06;55.02;99341.84;5089686;28;19916;-43
2023/07/06 00:51:37;;;;;;;;;;;;;;;25.01;55.54;99344.69;5089910;28;19935;-42
2023/07/06 00:54:05;;;;;;;;;;;;;;;24.85;56.17;99352.41;5090092;28;20352;-45
2023/07/06 00:56:36;;;;;;;;;;;;;;;24.75;56.45;99352.63;5089630;28;19912;-45
2023/07/06 00:59:04;;;;;;;;;;;;;;;24.80;56.32;99352.53;5090717;28;19912;-44
2023/07/06 01:01:31;;;;;;;;;;;;;;;24.91;55.79;99351.19;5094129;28;20335;-42
2023/07/06 01:03:58;;;;;;;;;;;;;;;24.91;55.64;99337.56;5093985;28;19991;-42
2023/07/06 01:06:29;;;;;;;;;;;;;;;24.94;55.60;99339.69;5093746;28;19912;-42
2023/07/06 01:08:55;;;;;;;;;;;;;;;24.77;56.20;99348.53;5093747;28;20449;-42
2023/07/06 01:11:21;;;;;;;;;;;;;;;25.02;55.04;99338.16;5093658;28;19995;-42
2023/07/06 01:13:50;;;;;;;;;;;;;;;25.18;54.46;99328.47;5093872;28;19985;-43
2023/07/06 01:16:18;;;;;;;;;;;;;;;25.03;54.75;99330.78;5093670;28;19953;-41
2023/07/06 01:18:44;;;;;;;;;;;;;;;25.18;54.05;99338.56;5093675;28;19935;-45
2023/07/06 01:21:16;;;;;;;;;;;;;;;25.07;54.09;99329.84;5093929;28;20003;-43
2023/07/06 01:23:51;;;;;;;;;;;;;;;24.81;54.67;99335.09;5093528;28;19912;-42
2023/07/06 01:26:19;;;;;;;;;;;;;;;25.15;53.25;99326.38;5093858;28;20241;-40
2023/07/06 01:28:50;;;;;;;;;;;;;;;25.10;53.50;99328.44;5093716;28;19916;-44
2023/07/06 01:31:28;;;;;;;;;;;;;;;25.18;53.06;99335.84;5093674;28;19934;-43
2023/07/06 01:34:01;;;;;;;;;;;;;;;25.17;53.49;99332.31;5093132;28;19924;-43
2023/07/06 01:36:48;;;;;;;;;;;;;;;25.08;53.51;99330.66;5093228;28;19912;-43
2023/07/06 01:39:15;;;;;;;;;;;;;;;24.97;53.90;99330.88;5093328;28;19920;-42
2023/07/06 01:41:41;;;;;;;;;;;;;;;25.07;53.77;99335.28;5093133;28;19918;-42
2023/07/06 01:44:16;;;;;;;;;;;;;;;24.78;54.95;99343.88;5093064;28;19912;-42
2023/07/06 01:46:49;;;;;;;;;;;;;;;24.81;55.06;99339.72;5093396;28;19912;-41
2023/07/06 01:49:15;;;;;;;;;;;;;;;24.85;54.89;99330.66;5093241;28;20378;-43
2023/07/06 01:51:43;;;;;;;;;;;;;;;24.93;54.40;99326.38;5092883;28;20006;-42
2023/07/06 01:54:13;;;;;;;;;;;;;;;24.94;54.44;99325.25;5092820;28;19926;-42
2023/07/06 01:56:48;;;;;;;;;;;;;;;25.30;53.06;99324.41;5092877;28;20003;-43
2023/07/06 01:59:19;;;;;;;;;;;;;;;25.30;52.93;99317.06;5093248;28;19920;-43
2023/07/06 02:01:47;;;;;;;;;;;;;;;25.07;53.66;99318.16;5093153;28;20323;-43
2023/07/06 02:04:13;;;;;;;;;;;;;;;24.95;54.36;99319.50;5092915;28;19919;-43
2023/07/06 02:06:38;;;;;;;;;;;;;;;25.20;54.21;99319.19;5092818;28;19919;-44
2023/07/06 02:09:04;;;;;;;;;;;;;;;25.17;54.24;99324.16;5092631;28;19916;-43
2023/07/06 02:11:32;;;;;;;;;;;;;;;25.22;54.24;99306.88;5091750;28;19919;-43
2023/07/06 02:13:57;;;;;;;;;;;;;;;25.43;53.96;99325.44;5092406;28;19954;-43
2023/07/06 02:16:22;;;;;;;;;;;;;;;25.25;54.10;99330.00;5092355;28;20046;-43
2023/07/06 02:18:48;;;;;;;;;;;;;;;25.18;54.57;99330.41;5092257;28;19916;-43
2023/07/06 02:21:14;;;;;;;;;;;;;;;25.28;54.15;99330.16;5092334;28;19915;-43
2023/07/06 02:23:39;;;;;;;;;;;;;;;25.32;54.32;99335.78;5092500;28;19934;-43
2023/07/06 02:26:05;;;;;;;;;;;;;;;25.03;55.04;99338.94;5092331;28;19912;-42
2023/07/06 02:28:30;;;;;;;;;;;;;;;24.85;55.58;99340.75;5092220;28;19980;-42
2023/07/06 02:30:57;;;;;;;;;;;;;;;24.93;55.99;99340.00;5092450;28;19912;-44
2023/07/06 02:33:23;;;;;;;;;;;;;;;24.65;56.68;99337.34;5092248;28;20301;-44
2023/07/06 02:35:48;;;;;;;;;;;;;;;24.94;56.00;99338.88;5092234;28;19923;-42
2023/07/06 02:38:15;;;;;;;;;;;;;;;24.87;56.04;99335.78;5092066;28;20407;-43
2023/07/06 02:40:41;;;;;;;;;;;;;;;24.86;56.26;99332.25;5092390;28;19919;-43
2023/07/06 02:43:07;;;;;;;;;;;;;;;25.26;55.03;99342.47;5092287;28;19912;-43
2023/07/06 02:45:33;;;;;;;;;;;;;;;25.58;54.18;99332.41;5092100;28;20367;-43
2023/07/06 02:47:58;;;;;;;;;;;;;;;25.31;54.65;99335.00;5091863;28;19922;-43
2023/07/06 02:50:24;;;;;;;;;;;;;;;25.15;55.09;99331.81;5091846;28;19970;-43
2023/07/06 02:52:49;;;;;;;;;;;;;;;24.74;56.52;99330.06;5091673;28;19912;-43
2023/07/06 02:55:16;;;;;;;;;;;;;;;24.39;57.41;99332.47;5091584;28;19916;-42
2023/07/06 02:57:41;;;;;;;;;;;;;;;24.92;56.55;99332.94;5092044;28;19912;-43
2023/07/06 03:00:10;;;;;;;;;;;;;;;25.28;55.25;99327.44;5091543;28;19935;-42
2023/07/06 03:02:36;;;;;;;;;;;;;;;25.38;55.02;99322.84;5091607;28;20136;-43
2023/07/06 03:05:04;;;;;;;;;;;;;;;25.16;55.64;99319.00;5091646;28;20335;-42
2023/07/06 03:07:29;;;;;;;;;;;;;;;25.11;55.99;99322.69;5091421;28;19919;-43
2023/07/06 03:09:54;;;;;;;;;;;;;;;25.17;55.45;99316.00;5091518;28;19916;-42
2023/07/06 03:12:19;;;;;;;;;;;;;;;25.21;55.72;99313.44;5091412;28;19981;-42
2023/07/06 03:14:46;;;;;;;;;;;;;;;25.49;55.01;99316.00;5091298;28;19912;-42
2023/07/06 03:17:11;;;;;;;;;;;;;;;25.54;54.89;99319.41;5091617;28;19998;-43
2023/07/06 03:19:38;;;;;;;;;;;;;;;25.63;54.60;99314.00;5091402;28;19967;-43
2023/07/06 03:22:04;;;;;;;;;;;;;;;25.22;55.66;99314.25;5090896;28;19912;-43
2023/07/06 03:24:29;;;;;;;;;;;;;;;25.52;54.94;99313.47;5091614;28;19977;-43
2023/07/06 03:26:54;;;;;;;;;;;;;;;25.43;55.23;99315.34;5091068;28;19919;-42
2023/07/06 03:29:20;;;;;;;;;;;;;;;25.10;56.19;99309.38;5091219;28;20376;-43
2023/07/06 03:31:45;;;;;;;;;;;;;;;24.95;56.73;99314.06;5091366;28;19923;-42
2023/07/06 03:34:10;;;;;;;;;;;;;;;25.06;56.03;99317.34;5090787;28;19924;-43
2023/07/06 03:36:38;;;;;;;;;;;;;;;25.22;55.80;99306.88;5090938;28;20065;-42
2023/07/06 03:39:05;;;;;;;;;;;;;;;25.29;55.40;99317.38;5090794;28;20380;-43
2023/07/06 03:41:30;;;;;;;;;;;;;;;25.43;54.79;99311.81;5090934;28;19923;-42
2023/07/06 03:43:58;;;;;;;;;;;;;;;25.66;54.33;99313.38;5090962;28;20348;-42
2023/07/06 03:46:33;;;;;;;;;;;;;;;25.79;54.04;99313.59;5090915;28;20351;-43
2023/07/06 03:48:59;;;;;;;;;;;;;;;25.66;54.27;99318.00;5090923;28;19916;-43
2023/07/06 03:51:25;;;;;;;;;;;;;;;25.90;53.54;99315.72;5090981;28;20129;-41
2023/07/06 03:53:50;;;;;;;;;;;;;;;26.39;52.38;99307.50;5091449;28;20093;-43
2023/07/06 03:56:16;;;;;;;;;;;;;;;26.65;51.99;99312.97;5091137;28;19912;-41
2023/07/06 03:58:43;;;;;;;;;;;;;;;26.94;51.42;99306.09;5091049;28;20352;-44
2023/07/06 04:01:08;;;;;;;;;;;;;;;27.49;49.96;99310.81;5091416;28;20179;-43
2023/07/06 04:03:34;;;;;;;;;;;;;;;27.57;49.41;99300.16;5091299;28;19916;-42
2023/07/06 04:06:00;;;;;;;;;;;;;;;27.62;49.42;99303.50;5091179;28;19923;-43
2023/07/06 04:08:25;;;;;;;;;;;;;;;28.11;48.42;99302.34;5091559;28;19916;-42
2023/07/06 04:10:51;;;;;;;;;;;;;;;28.51;47.76;99299.94;5090777;28;19927;-43
2023/07/06 04:13:16;;;;;;;;;;;;;;;28.60;46.80;99302.66;5090212;28;19987;-37
2023/07/06 04:15:44;;;;;;;;;;;;;;;28.35;47.57;99307.97;5090564;28;20008;-35
2023/07/06 04:18:10;;;;;;;;;;;;;;;28.72;46.79;99315.59;5090865;28;19943;-37
2023/07/06 04:20:35;;;;;;;;;;;;;;;28.81;46.48;99308.13;5090691;28;19919;-37
2023/07/06 04:23:00;;;;;;;;;;;;;;;29.03;45.48;99315.13;5090693;28;19919;-36
2023/07/06 04:25:29;;;;;;;;;;;;;;;28.95;45.96;99314.09;5090433;28;19912;-36
2023/07/06 04:27:55;;;;;;;;;;;;;;;28.42;47.29;99313.69;5090468;28;20333;-36
2023/07/06 04:30:21;;;;;;;;;;;;;;;28.39;47.28;99319.84;5090741;28;19949;-37
2023/07/06 04:32:50;;;;;;;;;;;;;;;28.53;47.34;99322.34;5090508;28;19991;-35
2023/07/06 04:35:19;;;;;;;;;;;;;;;28.81;46.74;99321.81;5089742;28;19924;-37
2023/07/06 04:37:45;;;;;;;;;;;;;;;28.97;46.00;99324.72;5090593;28;20010;-37
2023/07/06 04:40:13;;;;;;;;;;;;;;;29.30;45.58;99323.91;5090560;28;19916;-37
2023/07/06 04:42:39;;;;;;;;;;;;;;;29.90;44.13;99325.16;5090949;28;19912;-37
2023/07/06 04:45:04;;;;;;;;;;;;;;;30.35;43.22;99324.25;5090551;28;19912;-36
2023/07/06 04:47:32;;;;;;;;;;;;;;;30.53;42.65;99324.75;5090879;28;20007;-36
2023/07/06 04:49:57;;;;;;;;;;;;;;;30.74;42.22;99326.53;5090601;28;19923;-36
2023/07/06 04:52:22;;;;;;;;;;;;;;;31.43;41.05;99338.22;5090449;28;19911;-37
2023/07/06 04:54:50;;;;;;;;;;;;;;;31.03;41.79;99339.13;5090812;28;20007;-37
2023/07/06 04:57:16;;;;;;;;;;;;;;;30.96;42.01;99338.97;5089625;28;19916;-36
2023/07/06 04:59:42;;;;;;;;;;;;;;;31.04;41.73;99338.00;5090537;28;20398;-37
2023/07/06 05:02:07;;;;;;;;;;;;;;;31.22;41.25;99334.91;5090113;28;20017;-39
2023/07/06 05:04:32;;;;;;;;;;;;;;;31.42;41.25;99349.59;5090014;28;19908;-37
2023/07/06 05:06:58;;;;;;;;;;;;;;;31.62;40.18;99340.31;5089817;28;19943;-37
2023/07/06 05:09:24;;;;;;;;;;;;;;;32.42;38.74;99342.97;5089994;28;19920;-37
2023/07/06 05:11:50;;;;;;;;;;;;;;;31.89;39.89;99349.63;5090363;28;19912;-37
2023/07/06 05:14:15;;;;;;;;;;;;;;;31.24;40.58;99340.88;5089929;28;19916;-36
2023/07/06 05:16:41;;;;;;;;;;;;;;;31.63;39.85;99347.41;5089990;28;19924;-37
2023/07/06 05:19:06;;;;;;;;;;;;;;;31.94;39.64;99348.53;5089565;28;19923;-37
2023/07/06 05:21:33;;;;;;;;;;;;;;;31.58;40.00;99344.13;5089983;28;19916;-36
2023/07/06 05:23:58;;;;;;;;;;;;;;;32.00;39.70;99346.31;5090392;28;19916;-36
2023/07/06 05:26:24;;;;;;;;;;;;;;;32.01;39.52;99350.69;5089599;28;19970;-37
2023/07/06 05:28:50;;;;;;;;;;;;;;;32.53;38.95;99349.50;5089900;28;19923;-36
2023/07/06 05:31:16;;;;;;;;;;;;;;;32.76;38.08;99332.31;5090161;28;19978;-36
2023/07/06 05:33:41;;;;;;;;;;;;;;;33.08;37.59;99353.00;5089674;28;19925;-36
2023/07/06 05:36:06;;;;;;;;;;;;;;;32.88;38.05;99359.69;5090074;28;20364;-36
2023/07/06 05:38:32;;;;;;;;;;;;;;;32.30;38.56;99358.44;5089901;28;19912;-36
2023/07/06 05:41:01;;;;;;;;;;;;;;;33.05;37.61;99359.28;5090660;28;20002;-38
2023/07/06 05:43:26;;;;;;;;;;;;;;;33.36;37.20;99349.25;5090912;28;19912;-37
2023/07/06 05:45:51;;;;;;;;;;;;;;;33.49;37.27;99349.84;5090972;28;20077;-35
2023/07/06 05:48:18;;;;;;;;;;;;;;;33.87;36.60;99348.13;5093612;28;20285;-36
2023/07/06 05:50:43;;;;;;;;;;;;;;;34.67;34.85;99345.38;5093720;28;19912;-37
2023/07/06 05:53:08;;;;;;;;;;;;;;;34.55;35.21;99342.81;5093430;28;20415;-36
2023/07/06 05:55:34;;;;;;;;;;;;;;;34.19;35.81;99348.66;5093748;28;19919;-37
2023/07/06 05:57:59;;;;;;;;;;;;;;;34.05;35.86;99342.91;5091801;28;19912;-36
2023/07/06 06:00:25;;;;;;;;;;;;;;;34.15;35.48;99347.78;5091770;28;19912;-37
2023/07/06 06:02:50;;;;;;;;;;;;;;;34.19;35.81;99348.66;5091941;28;19916;-37
2023/07/06 06:05:16;;;;;;;;;;;;;;;34.14;35.36;99351.72;5091660;28;20365;-37
2023/07/06 06:07:44;;;;;;;;;;;;;;;34.69;34.92;99345.00;5092106;28;20399;-37
2023/07/06 06:10:10;;;;;;;;;;;;;;;35.57;33.81;99351.91;5092571;28;19916;-38
2023/07/06 06:12:36;;;;;;;;;;;;;;;35.23;34.77;99358.28;5092942;28;19912;-36
2023/07/06 06:15:02;;;;;;;;;;;;;;;34.82;34.96;99346.34;5093856;28;19916;-36
2023/07/06 06:17:28;;;;;;;;;;;;;;;34.89;35.11;99343.66;5093892;28;19970;-36
2023/07/06 06:19:53;;;;;;;;;;;;;;;35.28;34.41;99348.03;5093811;28;20383;-35
2023/07/06 06:22:19;;;;;;;;;;;;;;;35.62;34.22;99351.53;5093591;28;20292;-36
2023/07/06 06:24:45;;;;;;;;;;;;;;;35.93;33.55;99346.66;5093556;28;19912;-36
2023/07/06 06:27:11;;;;;;;;;;;;;;;37.01;32.20;99341.69;5093918;28;20414;-36
2023/07/06 06:29:37;;;;;;;;;;;;;;;36.60;31.88;99343.50;5093205;28;19951;-37
2023/07/06 06:32:03;;;;;;;;;;;;;;;36.04;32.65;99344.75;5093321;28;19978;-37
2023/07/06 06:34:28;;;;;;;;;;;;;;;35.82;32.63;99339.06;5092891;28;19977;-36
2023/07/06 06:36:54;;;;;;;;;;;;;;;35.96;32.80;99343.91;5092780;28;19912;-36
2023/07/06 06:39:20;;;;;;;;;;;;;;;36.26;32.93;99336.63;5093281;28;19919;-37
2023/07/06 06:41:46;;;;;;;;;;;;;;;36.27;32.13;99329.88;5093222;28;19912;-36
2023/07/06 06:44:12;;;;;;;;;;;;;;;36.27;32.38;99329.88;5093023;28;19920;-36
2023/07/06 06:46:38;;;;;;;;;;;;;;;36.53;31.72;99326.84;5092829;28;20375;-37
2023/07/06 06:49:03;;;;;;;;;;;;;;;36.86;31.59;99319.50;5093148;28;19920;-36
2023/07/06 06:51:29;;;;;;;;;;;;;;;36.54;31.79;99325.69;5092974;28;20326;-38
2023/07/06 06:53:54;;;;;;;;;;;;;;;36.56;31.48;99326.09;5093544;28;19912;-37
2023/07/06 06:56:22;;;;;;;;;;;;;;;36.96;31.06;99320.72;5092856;28;19969;-37
2023/07/06 06:58:48;;;;;;;;;;;;;;;36.91;30.17;99312.75;5093280;28;19958;-37
2023/07/06 07:01:16;;;;;;;;;;;;;;;37.11;30.62;99321.50;5093162;28;19938;-37
2023/07/06 07:03:41;;;;;;;;;;;;;;;37.91;29.94;99317.63;5092946;28;19923;-37
2023/07/06 07:06:13;;;;;;;;;;;;;;;37.67;29.89;99322.03;5092971;28;19923;-37
2023/07/06 07:08:39;;;;;;;;;;;;;;;37.00;31.36;99317.94;5092918;28;19920;-37
2023/07/06 07:11:04;;;;;;;;;;;;;;;37.26;30.08;99322.34;5092684;28;19969;-37
2023/07/06 07:13:30;;;;;;;;;;;;;;;37.14;30.69;99318.00;5092778;28;20284;-39
2023/07/06 07:15:55;;;;;;;;;;;;;;;37.19;30.90;99322.38;5092707;28;19912;-35
2023/07/06 07:18:23;;;;;;;;;;;;;;;37.34;30.67;99326.75;5092490;28;19912;-38
2023/07/06 07:20:51;;;;;;;;;;;;;;;38.29;29.42;99326.28;5092712;28;19970;-37
2023/07/06 07:23:16;;;;;;;;;;;;;;;38.41;28.91;99316.75;5092417;28;19912;-37
2023/07/06 07:25:42;;;;;;;;;;;;;;;37.91;29.17;99328.75;5092235;28;19919;-37
2023/07/06 07:28:07;;;;;;;;;;;;;;;37.73;29.51;99331.53;5092271;28;19919;-36
2023/07/06 07:30:34;;;;;;;;;;;;;;;37.72;28.81;99327.19;5092200;28;19969;-36
2023/07/06 07:32:59;;;;;;;;;;;;;;;37.74;29.38;99324.78;5092069;28;19955;-37
2023/07/06 07:35:26;;;;;;;;;;;;;;;36.72;30.14;99330.53;5092197;28;20071;-35
2023/07/06 07:37:51;;;;;;;;;;;;;;;36.44;30.58;99331.94;5092157;28;19916;-36
2023/07/06 07:40:18;;;;;;;;;;;;;;;36.99;30.54;99325.44;5091307;28;19918;-37
2023/07/06 07:42:46;;;;;;;;;;;;;;;37.02;30.47;99321.13;5091937;28;20008;-36
2023/07/06 07:45:13;;;;;;;;;;;;;;;37.01;29.96;99323.06;5091847;28;19919;-37
2023/07/06 07:47:38;;;;;;;;;;;;;;;37.08;29.75;99325.09;5091951;28;19916;-36
2023/07/06 07:50:05;;;;;;;;;;;;;;;37.30;29.11;99325.91;5091951;28;19981;-37
2023/07/06 07:52:30;;;;;;;;;;;;;;;37.53;28.91;99317.25;5091901;28;19966;-37
2023/07/06 07:54:56;;;;;;;;;;;;;;;37.65;28.90;99321.63;5091637;28;19940;-36
2023/07/06 07:57:21;;;;;;;;;;;;;;;37.87;28.26;99327.94;5091998;28;19956;-36
2023/07/06 07:59:48;;;;;;;;;;;;;;;38.13;27.08;99330.28;5091587;28;19912;-37
2023/07/06 08:02:14;;;;;;;;;;;;;;;37.37;28.27;99328.72;5091842;28;19912;-36
2023/07/06 08:04:39;;;;;;;;;;;;;;;37.32;28.22;99329.13;5091894;28;19935;-37
2023/07/06 08:07:05;;;;;;;;;;;;;;;37.30;29.43;99314.81;5091782;28;19912;-37
2023/07/06 08:09:30;;;;;;;;;;;;;;;37.69;28.70;99320.41;5090667;28;19924;-37
2023/07/06 08:11:56;;;;;;;;;;;;;;;37.75;29.11;99321.59;5091557;28;19912;-37
2023/07/06 08:14:41;;;;;;;;;;;;;;;38.09;27.72;99315.63;5091383;28;19919;-37
2023/07/06 08:17:07;;;;;;;;;;;;;;;37.63;28.15;99316.47;5090999;28;20299;-37
2023/07/06 08:19:32;;;;;;;;;;;;;;;37.34;28.86;99316.44;5091126;28;19911;-37
2023/07/06 08:21:58;;;;;;;;;;;;;;;36.64;30.00;99329.69;5091347;28;20312;-37
2023/07/06 08:24:24;;;;;;;;;;;;;;;36.92;29.56;99317.91;5091478;28;19969;-36
2023/07/06 08:26:49;;;;;;;;;;;;;;;36.35;30.52;99314.91;5091408;28;19919;-37
2023/07/06 08:29:15;;;;;;;;;;;;;;;36.00;30.70;99322.59;5091048;28;19916;-37
2023/07/06 08:31:40;;;;;;;;;;;;;;;35.98;31.38;99313.88;5091289;28;20015;-37
2023/07/06 08:34:05;;;;;;;;;;;;;;;36.23;31.54;99306.94;5090867;28;19924;-37
2023/07/06 08:36:33;;;;;;;;;;;;;;;35.81;31.78;99317.31;5090898;28;19919;-36
2023/07/06 08:39:00;;;;;;;;;;;;;;;35.51;32.74;99320.19;5091044;28;19912;-35
2023/07/06 08:41:29;;;;;;;;;;;;;;;36.04;32.55;99300.44;5091542;28;19916;-37
2023/07/06 08:43:56;;;;;;;;;;;;;;;36.12;31.80;99309.59;5091329;28;20335;-37
2023/07/06 08:46:22;;;;;;;;;;;;;;;36.14;31.99;99296.97;5091470;28;19916;-36
2023/07/06 08:48:47;;;;;;;;;;;;;;;36.31;31.54;99308.53;5090790;28;20304;-37
2023/07/06 08:51:25;;;;;;;;;;;;;;;36.27;32.15;99305.78;5091145;28;19912;-36
2023/07/06 08:54:16;;;;;;;;;;;;;;;36.15;31.71;99300.53;5091146;28;19920;-37
2023/07/06 08:56:41;;;;;;;;;;;;;;;36.23;31.19;99302.16;5090954;28;19912;-38
2023/07/06 08:59:12;;;;;;;;;;;;;;;36.10;32.24;99300.88;5090988;28;19942;-36
2023/07/06 09:01:39;;;;;;;;;;;;;;;36.16;31.54;99299.34;5090990;28;20252;-37
2023/07/06 09:04:11;;;;;;;;;;;;;;;35.88;31.68;99308.28;5091035;28;20433;-37
2023/07/06 09:06:40;;;;;;;;;;;;;;;35.08;32.06;99308.72;5090778;28;19954;-35
2023/07/06 09:09:07;;;;;;;;;;;;;;;33.88;33.81;99306.38;5090702;28;20020;-36
2023/07/06 09:11:37;;;;;;;;;;;;;;;33.84;33.94;99311.03;5091070;28;19920;-36
2023/07/06 09:14:07;;;;;;;;;;;;;;;34.64;32.64;99302.69;5091742;28;20042;-37
2023/07/06 09:16:36;;;;;;;;;;;;;;;34.88;31.59;99297.06;5091726;28;19916;-37
2023/07/06 09:19:07;;;;;;;;;;;;;;;34.89;31.05;99302.22;5091519;28;19938;-36
2023/07/06 09:21:32;;;;;;;;;;;;;;;35.28;30.96;99301.03;5094125;28;20060;-36
2023/07/06 09:23:58;;;;;;;;;;;;;;;34.36;32.07;99303.13;5095147;28;19916;-36
2023/07/06 09:26:29;;;;;;;;;;;;;;;34.80;30.99;99296.97;5094649;28;20347;-36
2023/07/06 09:29:15;;;;;;;;;;;;;;;35.07;31.34;99294.09;5094205;28;19920;-37
2023/07/06 09:31:43;;;;;;;;;;;;;;;34.72;31.48;99302.81;5094146;28;19916;-37
2023/07/06 09:34:21;;;;;;;;;;;;;;;34.03;32.33;99304.63;5093686;28;20442;-36
2023/07/06 09:36:47;;;;;;;;;;;;;;;33.56;31.46;99297.56;5093968;28;19912;-36
2023/07/06 09:39:14;;;;;;;;;;;;;;;33.41;31.22;99298.50;5094160;28;19918;-36
2023/07/06 09:41:43;;;;;;;;;;;;;;;33.69;31.07;99278.88;5094019;28;20006;-37
2023/07/06 09:44:12;;;;;;;;;;;;;;;34.33;29.25;99292.03;5093951;28;19916;-38
2023/07/06 09:46:38;;;;;;;;;;;;;;;34.37;30.90;99299.22;5094017;28;19916;-37
2023/07/06 09:49:17;;;;;;;;;;;;;;;34.20;31.25;99303.31;5093970;28;20357;-36
2023/07/06 09:51:58;;;;;;;;;;;;;;;34.22;31.72;99283.63;5094072;28;20382;-37
2023/07/06 09:54:44;;;;;;;;;;;;;;;34.69;30.68;99293.31;5093974;28;19920;-40
2023/07/06 09:57:15;;;;;;;;;;;;;;;34.63;31.52;99278.19;5093553;28;19912;-36
2023/07/06 09:59:42;;;;;;;;;;;;;;;34.98;30.15;99282.56;5093621;28;19912;-36
2023/07/06 10:02:24;;;;;;;;;;;;;;;34.51;30.46;99275.69;5093768;28;19912;-36
2023/07/06 10:04:58;;;;;;;;;;;;;;;34.28;29.80;99276.59;5093424;28;19922;-37
2023/07/06 10:07:23;;;;;;;;;;;;;;;34.49;30.85;99278.84;5093481;28;19912;-37
2023/07/06 10:09:48;;;;;;;;;;;;;;;34.37;30.22;99279.88;5093189;28;19981;-36
2023/07/06 10:12:32;;;;;;;;;;;;;;;34.79;30.36;99275.28;5093259;28;20352;-36
2023/07/06 10:15:00;;;;;;;;;;;;;;;34.94;30.05;99267.91;5093374;28;19912;-36
2023/07/06 10:17:25;;;;;;;;;;;;;;;35.02;29.83;99270.38;5093386;28;20372;-37
2023/07/06 10:20:03;;;;;;;;;;;;;;;34.56;29.87;99256.81;5093581;28;20011;-36
2023/07/06 10:22:34;;;;;;;;;;;;;;;34.47;30.71;99257.09;5093339;28;19981;-36
2023/07/06 10:25:11;;;;;;;;;;;;;;;34.43;30.38;99253.50;5093194;28;19919;-36
2023/07/06 10:27:46;;;;;;;;;;;;;;;34.74;29.92;99253.50;5093432;28;20427;-37
2023/07/06 10:30:24;;;;;;;;;;;;;;;34.77;30.17;99245.25;5093113;28;19981;-36
2023/07/06 10:32:53;;;;;;;;;;;;;;;34.46;31.07;99240.91;5092442;28;19950;-36
2023/07/06 10:35:28;;;;;;;;;;;;;;;35.03;31.53;99236.03;5093488;28;19928;-36
2023/07/06 10:37:53;;;;;;;;;;;;;;;34.62;30.86;99233.22;5093237;28;19912;-36
2023/07/06 10:40:20;;;;;;;;;;;;;;;34.77;29.98;99234.19;5093463;28;20382;-35
2023/07/06 10:42:52;;;;;;;;;;;;;;;35.28;30.30;99229.16;5093383;28;19916;-36
2023/07/06 10:45:43;;;;;;;;;;;;;;;35.26;30.76;99223.22;5093277;28;19915;-37
2023/07/06 10:48:21;;;;;;;;;;;;;;;35.38;29.37;99218.19;5076732;28;19916;-37
2023/07/06 10:50:49;;;;;;;;;;;;;;;35.55;28.89;99202.88;5093182;28;19927;-36
2023/07/06 10:53:21;;;;;;;;;;;;;;;34.80;30.60;99210.53;5092855;28;19912;-37
2023/07/06 10:55:58;;;;;;;;;;;;;;;35.60;30.59;99210.03;5092711;28;19977;-36
2023/07/06 10:58:30;;;;;;;;;;;;;;;35.28;30.12;99202.31;5092758;28;19960;-37
2023/07/06 11:00:57;;;;;;;;;;;;;;;35.40;28.17;99206.75;5092638;28;19912;-35
2023/07/06 11:03:24;;;;;;;;;;;;;;;35.41;27.96;99214.66;5092710;28;19912;-36
2023/07/06 11:06:00;;;;;;;;;;;;;;;35.32;28.40;99216.94;5092956;28;19923;-37
2023/07/06 11:08:45;;;;;;;;;;;;;;;34.97;28.71;99209.09;5092931;28;19950;-36
2023/07/06 11:11:20;;;;;;;;;;;;;;;34.75;28.40;99219.97;5092854;28;19961;-36
2023/07/06 11:13:51;;;;;;;;;;;;;;;34.71;29.04;99216.38;5093131;28;19995;-37
2023/07/06 11:16:26;;;;;;;;;;;;;;;35.28;28.83;99207.03;5092605;28;19916;-36
2023/07/06 11:18:53;;;;;;;;;;;;;;;35.66;28.67;99204.91;5092490;28;19916;-36
2023/07/06 11:21:24;;;;;;;;;;;;;;;35.26;28.61;99206.63;5092539;28;19923;-36
2023/07/06 11:24:06;;;;;;;;;;;;;;;35.35;28.72;99212.63;5092370;28;19966;-36
2023/07/06 11:26:50;;;;;;;;;;;;;;;35.01;28.85;99218.22;5092313;28;19997;-35
2023/07/06 11:29:18;;;;;;;;;;;;;;;35.32;28.30;99214.19;5092163;28;19916;-36
2023/07/06 11:31:44;;;;;;;;;;;;;;;35.67;27.91;99206.53;5092112;28;20390;-43
2023/07/06 11:34:38;;;;;;;;;;;;;;;35.18;28.57;99208.53;5092182;28;19924;-42
2023/07/06 11:37:06;;;;;;;;;;;;;;;35.19;27.68;99201.84;5054596;28;20458;-41
2023/07/06 11:39:32;;;;;;;;;;;;;;;35.59;27.10;99200.16;5092115;28;19912;-41
2023/07/06 11:41:58;;;;;;;;;;;;;;;35.40;28.02;99201.22;5091956;28;20026;-42
2023/07/06 11:44:25;;;;;;;;;;;;;;;34.83;28.19;99204.25;5092047;28;19912;-42
2023/07/06 11:47:09;;;;;;;;;;;;;;;33.96;28.74;99207.16;5091812;28;19912;-43
2023/07/06 11:49:41;;;;;;;;;;;;;;;34.92;28.75;99193.69;5091949;28;19916;-42
2023/07/06 11:52:13;;;;;;;;;;;;;;;35.48;27.67;99190.97;5092028;28;20353;-43
2023/07/06 11:54:51;;;;;;;;;;;;;;;35.65;27.06;99190.28;5091856;28;19947;-41
2023/07/06 11:57:29;;;;;;;;;;;;;;;35.86;27.36;99195.19;5091880;28;19919;-42
2023/07/06 12:03:08;;;;;;;;;;;;;;;36.04;27.35;99172.31;5091613;28;20365;-41
2023/07/06 12:05:41;;;;;;;;;;;;;;;35.67;27.21;99184.38;5091344;28;19994;-42
2023/07/06 12:08:29;;;;;;;;;;;;;;;35.84;26.87;99178.19;5091447;28;19943;-43
2023/07/06 12:11:19;;;;;;;;;;;;;;;35.50;28.29;99180.31;5085648;28;20335;-43
2023/07/06 12:13:47;;;;;;;;;;;;;;;35.82;27.54;99161.94;5086236;28;19924;-45
2023/07/06 12:16:18;;;;;;;;;;;;;;;35.55;28.28;99163.38;5090089;28;19919;-43
2023/07/06 12:18:47;;;;;;;;;;;;;;;35.80;28.17;99161.56;5091869;28;19991;-41
2023/07/06 12:21:32;;;;;;;;;;;;;;;35.73;28.13;99157.97;5091880;28;19961;-41
2023/07/06 12:24:01;;;;;;;;;;;;;;;35.60;27.87;99161.03;5091859;28;19919;-42
2023/07/06 12:26:29;;;;;;;;;;;;;;;35.66;27.83;99155.91;5091927;28;19928;-43
2023/07/06 12:28:55;;;;;;;;;;;;;;;35.55;28.03;99150.34;5091567;28;19983;-42
2023/07/06 12:31:21;;;;;;;;;;;;;;;36.10;27.80;99137.53;5091079;28;19939;-43
2023/07/06 12:33:46;;;;;;;;;;;;;;;35.71;27.97;99135.41;5090729;28;20459;-43
2023/07/06 12:36:14;;;;;;;;;;;;;;;35.51;28.33;99144.00;5090906;28;20429;-42
2023/07/06 12:38:40;;;;;;;;;;;;;;;35.30;28.20;99146.59;5091040;28;19919;-43
2023/07/06 12:41:16;;;;;;;;;;;;;;;34.76;28.91;99154.44;5091018;28;19912;-42
2023/07/06 12:43:41;;;;;;;;;;;;;;;35.37;28.20;99149.41;5090630;28;20428;-42
2023/07/06 12:46:09;;;;;;;;;;;;;;;35.53;28.23;99143.56;5090858;28;19920;-41
2023/07/06 12:48:34;;;;;;;;;;;;;;;35.81;27.50;99149.31;5090674;28;19980;-44
2023/07/06 12:51:09;;;;;;;;;;;;;;;35.62;28.05;99142.06;5090698;28;20014;-40
2023/07/06 12:53:34;;;;;;;;;;;;;;;35.94;27.81;99144.22;5091200;28;20512;-43
2023/07/06 12:56:06;;;;;;;;;;;;;;;36.23;28.57;99138.78;5095852;28;19912;-43